Gas Leo — VRPQ3 — position and weather

sailwx.info

Track history (hours):
 
Tides and Currents Weather Stations Pressure Air Temp Water Temp Dewpoint Dewpoint Depression Visibility Wind Speed Wind Dir Waves Ship Positions

Gas Leo

Last reported at 2017-Dec-10 02:37 UTC. Time now 2017-Dec-12 06:37 UTC.
Position N 31°59' E 120°20'.

Length 226 m; draft 7.7 m.

Type: Ship. MMSI: 477654800.

Date/timePositionNaut miles runAvg speedWind from/ knotsBaromVisibWave heightAir tempDewpointWater temp
2017-Dec-10 02:37N 31°59' E 120°20'213.5
2017-Dec-10 02:30N 31°60' E 120°22'612.5
2017-Dec-10 02:00N 32°02' E 120°28'75 4.2
2017-Dec-09 08:06N 31°20' E 121°41'3 9.8
2017-Dec-09 07:50N 31°19' E 121°44'411.3
2017-Dec-09 07:29N 31°17' E 121°48'511.0
2017-Dec-09 07:00N 31°16' E 121°54'4 8.8
2017-Dec-09 06:30N 31°15' E 121°59'5 9.4
2017-Dec-09 06:00N 31°14' E 122°05'611.4
2017-Dec-09 05:30N 31°11' E 122°10'611.4
2017-Dec-09 05:00N 31°08' E 122°16'5 9.3
2017-Dec-09 04:29N 31°06' E 122°21'4 7.5
2017-Dec-09 03:59N 31°06' E 122°26'  
Track history (hours):
 
Tides and Currents Weather Stations Pressure Air Temp Water Temp Dewpoint Dewpoint Depression Visibility Wind Speed Wind Dir Waves Ship Positions

Gas Leo

Last reported at 2017-Dec-10 02:37 UTC. Time now 2017-Dec-12 06:37 UTC.
Position N 31°59' E 120°20'.

Length 226 m; draft 7.7 m.

Type: Ship. MMSI: 477654800.

Date/timePositionNaut miles runAvg speedWind from/ knotsBaromVisibWave heightAir tempDewpointWater temp
2017-Dec-10 02:37N 31°59' E 120°20'213.5
2017-Dec-10 02:30N 31°60' E 120°22'612.5
2017-Dec-10 02:00N 32°02' E 120°28'75 4.2
2017-Dec-09 08:06N 31°20' E 121°41'3 9.8
2017-Dec-09 07:50N 31°19' E 121°44'411.3
2017-Dec-09 07:29N 31°17' E 121°48'511.0
2017-Dec-09 07:00N 31°16' E 121°54'4 8.8
2017-Dec-09 06:30N 31°15' E 121°59'5 9.4
2017-Dec-09 06:00N 31°14' E 122°05'611.4
2017-Dec-09 05:30N 31°11' E 122°10'611.4
2017-Dec-09 05:00N 31°08' E 122°16'5 9.3
2017-Dec-09 04:29N 31°06' E 122°21'4 7.5
2017-Dec-09 03:59N 31°06' E 122°26'  

Dump ship's entire track history